SBCT/CWB METAR and TAF weather

Enter ICAO airport designator
Station Type Date Time Source
SBCT METAR 2019/10/23 02:00 UTC NOAA

SBCT 230200Z 12010KT 9999 BKN006 OVC009 15/14 Q1019


Station Type Date Time Source
SBCT Decoded METAR 2019/10/23 02:00 UTC NOAA

Curitiba Aeroporto , Brazil (SBCT) 25-31S 049-10W 908M
Oct 22, 2019 - 10:00 PM EDT / 2019.10.23 0200 UTC
Wind: from the ESE (120 degrees) at 12 MPH (10 KT):0
Visibility: greater than 7 mile(s):0
Sky conditions: overcast
Temperature: 59 F (15 C)
Dew Point: 57 F (14 C)
Relative Humidity: 93%
Pressure (altimeter): 30.09 in. Hg (1019 hPa)
ob: SBCT 230200Z 12010KT 9999 BKN006 OVC009 15/14 Q1019
cycle: 2

Station Type Date Time Source
SBCT TAF 2019/10/23 00:00 UTC NOAA

TAF SBCT 222100Z 2300/2324 11006KT 8000 BKN006 TN14/2308Z TX24/2318Z PROB40 2304/2311 2000 BR BKN002
BECMG 2312/2314 9999 SCT030
BECMG 2321/2323 BKN005
RMK PDJ

Example: see airport list